WXM80 ListenWXM80 Stop

You find our weather info also at:

UK Metoffice

WeatherCloud

Weather Underground

Northeastern Weather Network

AWEKAS

Citizen Weather Observer Program (CWOP)

HAMweather, WeatherForYou, PWS Weather


Weather Underground History page Text

Daily Summary for May 14, 2016 Units:  English    Metric   Both
« Previous Day
Next Day »
Daily Weekly Monthly Yearly Custom
  High: Low: Average:
Temperature: 74.7 °F 55.5 °F 63.8 °F
Dew Point: 63.6 °F 51.9 °F 57.2 °F
Humidity: 98 % 49 % 81 %
Wind Speed: 8.7 mph 0.0 mph 2.3 mph
Wind Gust: 16.1 mph - -
Wind:- - SW
Pressure: 29.78 in 29.57 in -
Precipitation: 0.12 in    
Historical Graphs
 
 
Tabular Data for May 14, 2016
Time Temperature Dew Point Pressure Wind Wind Speed Wind Gust Humidity Rainfall Rate (Hourly)
00:02 59.2 °F 58.3 °F 29.77 in West 1.3 mph 2.3 mph 97 % 0.00 in
00:08 59.4 °F 58.5 °F 29.77 in Calm   1.2 mph 97 % 0.00 in
00:13 59.4 °F 58.5 °F 29.77 in Calm     97 % 0.00 in
00:18 59.5 °F 58.6 °F 29.77 in West 0.7 mph 2.3 mph 97 % 0.00 in
00:23 59.6 °F 58.7 °F 29.77 in Calm     97 % 0.00 in
00:28 59.7 °F 58.8 °F 29.77 in West 0.1 mph 1.2 mph 97 % 0.00 in
00:33 59.8 °F 58.9 °F 29.77 in West 0.1 mph 1.2 mph 97 % 0.00 in
00:38 59.8 °F 58.9 °F 29.77 in West 0.8 mph 2.3 mph 97 % 0.00 in
00:43 59.9 °F 59.0 °F 29.77 in West 0.1 mph 3.5 mph 97 % 0.00 in
00:48 60.0 °F 59.1 °F 29.77 in West 0.5 mph 2.3 mph 97 % 0.00 in
00:53 60.0 °F 59.1 °F 29.77 in West 0.7 mph 2.3 mph 97 % 0.00 in
00:59 60.0 °F 59.1 °F 29.77 in Calm     97 % 0.00 in
01:04 60.0 °F 59.1 °F 29.77 in West 0.1 mph 1.2 mph 97 % 0.00 in
01:09 60.0 °F 59.1 °F 29.77 in Calm     97 % 0.00 in
01:14 60.0 °F 59.1 °F 29.77 in West 0.7 mph 2.0 mph 97 % 0.00 in
01:19 60.0 °F 59.1 °F 29.77 in West 1.2 mph 3.5 mph 97 % 0.00 in
01:24 60.0 °F 59.1 °F 29.77 in WSW 1.5 mph 2.3 mph 97 % 0.00 in
01:29 59.9 °F 59.0 °F 29.77 in WSW 1.8 mph 3.5 mph 97 % 0.00 in
01:34 59.9 °F 59.0 °F 29.77 in WSW 0.3 mph 3.5 mph 97 % 0.00 in
01:44 59.8 °F 58.9 °F 29.78 in WSW 1.7 mph 3.0 mph 97 % 0.00 in
01:50 59.8 °F 58.9 °F 29.77 in SW 2.4 mph 6.9 mph 97 % 0.00 in
01:55 59.8 °F 58.9 °F 29.77 in West 2.0 mph 2.3 mph 97 % 0.00 in
02:00 59.7 °F 58.8 °F 29.77 in West 0.1 mph 1.0 mph 97 % 0.00 in
02:05 59.7 °F 58.8 °F 29.77 in West 0.3 mph 2.3 mph 97 % 0.00 in
02:10 59.6 °F 58.7 °F 29.77 in West 0.7 mph 2.3 mph 97 % 0.00 in
02:20 59.5 °F 58.6 °F 29.77 in Calm   1.2 mph 97 % 0.00 in
02:25 59.4 °F 58.5 °F 29.76 in Calm   1.2 mph 97 % 0.00 in
02:30 59.4 °F 58.5 °F 29.76 in West 0.2 mph 1.0 mph 97 % 0.00 in
02:33 59.3 °F 58.4 °F 29.76 in West 0.1 mph 1.2 mph 97 % 0.00 in
02:38 59.2 °F 58.3 °F 29.76 in West 0.4 mph 1.2 mph 97 % 0.00 in
02:43 59.0 °F 58.2 °F 29.76 in West 1.1 mph 1.2 mph 97 % 0.00 in
02:48 58.9 °F 58.1 °F 29.77 in SW 1.4 mph 3.5 mph 97 % 0.00 in
02:54 58.7 °F 57.9 °F 29.76 in SW 1.8 mph 3.5 mph 97 % 0.00 in
02:59 58.6 °F 57.8 °F 29.76 in SW 1.2 mph 3.5 mph 97 % 0.00 in
03:09 58.5 °F 57.7 °F 29.76 in WNW 3.2 mph 6.0 mph 97 % 0.00 in
03:14 58.4 °F 57.6 °F 29.76 in West 3.3 mph 5.0 mph 97 % 0.00 in
03:19 58.4 °F 57.6 °F 29.76 in SW 2.0 mph 3.5 mph 97 % 0.00 in
03:24 58.3 °F 57.5 °F 29.76 in WSW 1.8 mph 3.5 mph 97 % 0.00 in
03:34 58.1 °F 57.3 °F 29.76 in WSW 0.4 mph 2.3 mph 97 % 0.00 in
03:39 58.0 °F 57.2 °F 29.76 in WSW 0.1 mph 1.2 mph 97 % 0.00 in
03:45 57.9 °F 57.1 °F 29.76 in WSW 0.2 mph   97 % 0.00 in
03:50 57.7 °F 56.9 °F 29.76 in WSW 0.4 mph 2.3 mph 97 % 0.00 in
03:55 57.7 °F 56.9 °F 29.76 in WSW 0.6 mph 2.3 mph 97 % 0.00 in
04:00 57.6 °F 56.8 °F 29.76 in WSW 0.2 mph 1.2 mph 97 % 0.00 in
04:05 57.5 °F 56.7 °F 29.76 in WSW 0.2 mph 1.0 mph 97 % 0.00 in
04:10 57.4 °F 56.6 °F 29.76 in WSW 1.4 mph 2.3 mph 97 % 0.00 in
04:15 57.3 °F 56.5 °F 29.76 in Calm   1.2 mph 97 % 0.00 in
04:20 57.2 °F 56.4 °F 29.76 in WSW 0.7 mph 1.2 mph 97 % 0.00 in
04:25 57.1 °F 56.3 °F 29.76 in WSW 0.8 mph 3.5 mph 97 % 0.00 in
04:30 57.1 °F 56.3 °F 29.77 in WSW 1.9 mph 3.5 mph 97 % 0.00 in
04:36 57.0 °F 56.2 °F 29.76 in WSW 0.9 mph 3.5 mph 97 % 0.00 in
04:37 57.0 °F 56.2 °F 29.77 in WSW 1.1 mph 2.3 mph 97 % 0.00 in
04:42 57.0 °F 56.2 °F 29.77 in WSW 1.3 mph 3.5 mph 97 % 0.00 in
04:52 57.0 °F 56.2 °F 29.77 in West 1.0 mph 2.3 mph 97 % 0.00 in
04:57 56.9 °F 56.1 °F 29.76 in WSW 0.4 mph 2.3 mph 97 % 0.00 in
05:02 56.9 °F 56.1 °F 29.76 in WSW 1.3 mph 3.5 mph 97 % 0.00 in
05:07 56.8 °F 56.0 °F 29.76 in WSW 2.3 mph 3.5 mph 97 % 0.00 in
05:12 56.7 °F 55.9 °F 29.77 in SW 1.7 mph 3.5 mph 97 % 0.00 in
05:17 56.6 °F 55.8 °F 29.77 in SW 2.1 mph 3.5 mph 97 % 0.00 in
05:23 56.5 °F 55.7 °F 29.77 in SW 2.3 mph 4.6 mph 97 % 0.00 in
05:38 56.2 °F 55.4 °F 29.76 in SW 0.2 mph 1.2 mph 97 % 0.00 in
05:43 56.1 °F 55.3 °F 29.76 in SW 1.0 mph 2.3 mph 97 % 0.00 in
05:53 56.0 °F 55.2 °F 29.77 in Calm     97 % 0.00 in
05:58 55.9 °F 54.8 °F 29.77 in Calm     96 % 0.00 in
06:03 55.7 °F 54.9 °F 29.76 in Calm     97 % 0.00 in
06:08 55.6 °F 54.8 °F 29.76 in Calm     97 % 0.00 in
06:14 55.5 °F 54.7 °F 29.77 in Calm     97 % 0.00 in
06:19 55.5 °F 54.7 °F 29.76 in Calm     97 % 0.00 in
06:24 55.5 °F 54.7 °F 29.77 in Calm     97 % 0.00 in
06:29 55.7 °F 54.9 °F 29.77 in Calm     97 % 0.00 in
06:39 56.4 °F 55.6 °F 29.76 in Calm     97 % 0.00 in
06:44 56.7 °F 55.9 °F 29.77 in Calm     97 % 0.00 in
06:49 57.1 °F 56.5 °F 29.77 in Calm     98 % 0.00 in
06:54 57.4 °F 56.6 °F 29.77 in Calm     97 % 0.00 in
06:59 57.9 °F 57.3 °F 29.77 in Calm     98 % 0.00 in
07:05 58.4 °F 57.8 °F 29.77 in SW 0.6 mph 2.3 mph 98 % 0.00 in
07:10 58.9 °F 58.3 °F 29.77 in Calm     98 % 0.00 in
07:15 59.4 °F 58.8 °F 29.77 in Calm     98 % 0.00 in
07:20 59.9 °F 59.3 °F 29.77 in SW 0.1 mph 1.2 mph 98 % 0.00 in
07:25 60.2 °F 59.6 °F 29.77 in Calm   1.2 mph 98 % 0.00 in
07:30 60.4 °F 59.8 °F 29.77 in SW 0.7 mph 3.5 mph 98 % 0.00 in
07:35 60.7 °F 60.1 °F 29.77 in SW 2.1 mph 3.5 mph 98 % 0.00 in
07:40 60.7 °F 60.1 °F 29.77 in SW 1.6 mph 3.5 mph 98 % 0.00 in
07:45 60.7 °F 60.1 °F 29.77 in West 1.6 mph 3.5 mph 98 % 0.00 in
07:50 60.9 °F 60.0 °F 29.77 in SW 1.1 mph 3.5 mph 97 % 0.00 in
07:56 60.9 °F 60.0 °F 29.77 in WSW 1.8 mph 3.5 mph 97 % 0.00 in
08:01 61.1 °F 60.2 °F 29.77 in West 3.3 mph 5.0 mph 97 % 0.00 in
08:06 61.2 °F 60.1 °F 29.77 in WSW 5.4 mph 8.1 mph 96 % 0.00 in
08:11 61.3 °F 60.2 °F 29.77 in WSW 2.3 mph 4.0 mph 96 % 0.00 in
08:16 61.5 °F 60.1 °F 29.77 in WSW 4.9 mph 6.9 mph 95 % 0.00 in
08:21 61.7 °F 60.3 °F 29.77 in West 2.9 mph 4.6 mph 95 % 0.00 in
08:26 62.0 °F 60.3 °F 29.76 in SW 2.2 mph 5.0 mph 94 % 0.00 in
08:36 62.5 °F 60.1 °F 29.76 in WSW 2.0 mph 3.5 mph 92 % 0.00 in
08:41 62.8 °F 60.1 °F 29.76 in WNW 2.6 mph 4.6 mph 91 % 0.00 in
08:47 63.1 °F 60.4 °F 29.76 in SW 3.1 mph 4.6 mph 91 % 0.00 in
08:52 63.4 °F 59.8 °F 29.76 in West 0.5 mph 3.5 mph 88 % 0.00 in
08:57 63.9 °F 60.6 °F 29.76 in WSW 2.2 mph 3.5 mph 89 % 0.00 in
09:02 64.3 °F 60.7 °F 29.76 in WSW 0.8 mph 2.3 mph 88 % 0.00 in
09:12 65.1 °F 60.1 °F 29.76 in West 2.8 mph 3.5 mph 84 % 0.00 in
09:17 65.5 °F 59.9 °F 29.75 in West 0.8 mph 3.5 mph 82 % 0.00 in
09:27 66.2 °F 59.8 °F 29.75 in WNW 2.0 mph 3.5 mph 80 % 0.00 in
09:32 66.6 °F 60.2 °F 29.74 in West 0.1 mph 1.2 mph 80 % 0.00 in
09:38 67.3 °F 61.3 °F 29.74 in NW 2.2 mph 3.5 mph 81 % 0.00 in
09:43 67.8 °F 61.4 °F 29.74 in WSW 2.1 mph 3.5 mph 80 % 0.00 in
09:48 68.4 °F 61.3 °F 29.74 in WNW 3.4 mph 5.0 mph 78 % 0.00 in
09:58 69.3 °F 61.4 °F 29.74 in NNW 1.6 mph 4.6 mph 76 % 0.00 in
10:03 69.7 °F 62.2 °F 29.74 in NNW 2.5 mph 4.0 mph 77 % 0.00 in
10:08 70.4 °F 63.6 °F 29.73 in North 3.2 mph 4.0 mph 79 % 0.00 in
10:13 70.7 °F 62.4 °F 29.73 in North 3.3 mph 5.8 mph 75 % 0.00 in
10:18 70.9 °F 63.0 °F 29.73 in NNW 1.9 mph 3.5 mph 76 % 0.00 in
10:23 71.0 °F 62.7 °F 29.73 in North 3.0 mph 3.5 mph 75 % 0.00 in
10:29 71.2 °F 62.1 °F 29.73 in North 0.4 mph 2.3 mph 73 % 0.00 in
10:34 71.4 °F 62.3 °F 29.73 in North 0.8 mph 3.5 mph 73 % 0.00 in
10:39 71.6 °F 61.7 °F 29.73 in NNW 2.9 mph 4.6 mph 71 % 0.00 in
10:44 71.9 °F 63.2 °F 29.73 in North 3.4 mph 4.6 mph 74 % 0.00 in
10:49 72.1 °F 62.6 °F 29.73 in North 1.7 mph 2.3 mph 72 % 0.00 in
10:54 72.4 °F 62.5 °F 29.73 in North 2.4 mph 3.5 mph 71 % 0.00 in
10:59 72.7 °F 61.5 °F 29.73 in NW 2.5 mph 5.8 mph 68 % 0.00 in
11:04 73.0 °F 62.6 °F 29.73 in NNE 1.7 mph 5.8 mph 70 % 0.00 in
11:09 73.3 °F 61.3 °F 29.73 in NNW 2.5 mph 3.5 mph 66 % 0.00 in
11:14 73.4 °F 61.8 °F 29.72 in North 4.4 mph 6.0 mph 67 % 0.00 in
11:20 73.6 °F 62.0 °F 29.73 in NNW 0.2 mph 3.5 mph 67 % 0.00 in
11:25 73.9 °F 61.0 °F 29.73 in NNW 1.3 mph 3.5 mph 64 % 0.00 in
11:30 73.9 °F 61.4 °F 29.72 in North 1.3 mph 3.5 mph 65 % 0.00 in
11:35 73.7 °F 59.9 °F 29.72 in North 2.7 mph 4.0 mph 62 % 0.00 in
11:40 72.9 °F 58.7 °F 29.72 in NNE 1.5 mph 3.5 mph 61 % 0.00 in
11:50 72.6 °F 59.3 °F 29.71 in NNE 1.2 mph 3.5 mph 63 % 0.00 in
11:55 72.4 °F 59.5 °F 29.71 in NNE 2.5 mph 5.0 mph 64 % 0.00 in
12:00 72.1 °F 58.4 °F 29.71 in North 1.4 mph 3.5 mph 62 % 0.00 in
12:05 71.7 °F 58.0 °F 29.71 in NE 3.4 mph 4.6 mph 62 % 0.00 in
12:11 71.3 °F 59.4 °F 29.71 in NNE 2.1 mph 3.5 mph 66 % 0.00 in
12:16 71.7 °F 60.6 °F 29.71 in North 1.0 mph 2.3 mph 68 % 0.00 in
12:21 71.7 °F 58.4 °F 29.70 in ENE 4.4 mph 6.9 mph 63 % 0.00 in
12:26 71.7 °F 58.9 °F 29.71 in NNE 3.6 mph 5.8 mph 64 % 0.00 in
12:31 71.9 °F 60.3 °F 29.71 in NE 0.7 mph 2.3 mph 67 % 0.00 in
12:36 72.1 °F 57.0 °F 29.70 in South 2.6 mph 3.5 mph 59 % 0.00 in
12:41 72.3 °F 56.7 °F 29.70 in SE 1.4 mph 9.0 mph 58 % 0.00 in
12:46 72.6 °F 55.5 °F 29.70 in SE 5.2 mph 10.4 mph 55 % 0.00 in
12:51 73.0 °F 55.9 °F 29.70 in South 2.0 mph 11.5 mph 55 % 0.00 in
12:57 73.3 °F 55.6 °F 29.69 in SSE 6.9 mph 9.0 mph 54 % 0.00 in
13:02 73.2 °F 56.1 °F 29.69 in SW 2.6 mph 5.8 mph 55 % 0.00 in
13:07 73.3 °F 56.2 °F 29.69 in SSE 2.7 mph 5.8 mph 55 % 0.00 in
13:12 73.5 °F 56.8 °F 29.69 in South 1.4 mph 3.5 mph 56 % 0.00 in
13:17 73.7 °F 56.0 °F 29.69 in South 2.0 mph 4.6 mph 54 % 0.00 in
13:22 74.1 °F 55.3 °F 29.69 in South 3.1 mph 5.8 mph 52 % 0.00 in
13:27 74.2 °F 54.9 °F 29.68 in SE 6.0 mph 13.8 mph 51 % 0.00 in
13:32 74.1 °F 55.9 °F 29.68 in SSW 2.7 mph 6.9 mph 53 % 0.00 in
13:37 74.4 °F 54.0 °F 29.68 in South 2.0 mph 11.5 mph 49 % 0.00 in
13:42 74.5 °F 55.7 °F 29.68 in SSW 3.7 mph 6.0 mph 52 % 0.00 in
13:48 74.5 °F 55.2 °F 29.68 in SSW 2.9 mph 6.0 mph 51 % 0.00 in
13:53 74.3 °F 54.5 °F 29.68 in SSW 3.8 mph 7.0 mph 50 % 0.00 in
13:58 74.2 °F 53.8 °F 29.67 in SSW 1.8 mph 4.6 mph 49 % 0.00 in
14:03 74.6 °F 55.3 °F 29.68 in SE 3.8 mph 10.4 mph 51 % 0.00 in
14:08 74.4 °F 57.2 °F 29.67 in SE 2.0 mph 3.5 mph 55 % 0.00 in
14:18 74.7 °F 56.9 °F 29.67 in South 4.9 mph 8.1 mph 54 % 0.00 in
14:23 73.8 °F 57.1 °F 29.67 in SE 6.4 mph 11.0 mph 56 % 0.00 in
14:28 72.9 °F 55.8 °F 29.67 in SSE 4.1 mph 9.2 mph 55 % 0.00 in
14:33 72.5 °F 56.4 °F 29.67 in SSE 4.6 mph 6.0 mph 57 % 0.00 in
14:39 72.3 °F 57.2 °F 29.67 in SSW 2.3 mph 6.9 mph 59 % 0.00 in
14:44 72.0 °F 57.4 °F 29.66 in South 3.0 mph 3.5 mph 60 % 0.00 in
14:49 71.4 °F 56.3 °F 29.66 in South 4.0 mph 7.0 mph 59 % 0.00 in
14:54 71.1 °F 57.0 °F 29.66 in SSW 2.9 mph 5.8 mph 61 % 0.00 in
14:59 70.8 °F 57.6 °F 29.65 in SSW 5.7 mph 9.2 mph 63 % 0.00 in
15:04 70.5 °F 56.9 °F 29.65 in South 6.3 mph 11.5 mph 62 % 0.00 in
15:09 70.3 °F 57.1 °F 29.65 in South 1.6 mph 5.8 mph 63 % 0.00 in
15:14 70.1 °F 56.5 °F 29.65 in South 4.0 mph 8.1 mph 62 % 0.00 in
15:19 69.8 °F 55.7 °F 29.65 in SSE 5.8 mph 13.8 mph 61 % 0.00 in
15:24 69.4 °F 56.3 °F 29.65 in SSW 2.4 mph 6.9 mph 63 % 0.00 in
15:30 69.1 °F 56.0 °F 29.64 in South 3.2 mph 12.7 mph 63 % 0.00 in
15:35 68.9 °F 55.8 °F 29.64 in South 8.7 mph 15.0 mph 63 % 0.00 in
15:40 68.7 °F 55.6 °F 29.64 in SSE 3.9 mph 9.2 mph 63 % 0.00 in
15:45 68.5 °F 55.8 °F 29.64 in SE 3.2 mph 10.4 mph 64 % 0.00 in
15:50 68.3 °F 56.1 °F 29.63 in SSE 8.0 mph 16.1 mph 65 % 0.00 in
16:00 68.4 °F 57.0 °F 29.63 in SE 6.6 mph 12.0 mph 67 % 0.00 in
16:10 68.2 °F 56.8 °F 29.62 in SSE 5.4 mph 9.2 mph 67 % 0.00 in
16:15 68.2 °F 57.2 °F 29.62 in SSW 2.9 mph 5.8 mph 68 % 0.00 in
16:21 68.3 °F 58.1 °F 29.62 in SE 2.7 mph 10.0 mph 70 % 0.00 in
16:26 68.5 °F 58.7 °F 29.62 in SSW 1.9 mph 4.6 mph 71 % 0.00 in
16:31 68.8 °F 59.0 °F 29.62 in SSW 3.1 mph 6.9 mph 71 % 0.00 in
16:36 69.1 °F 59.3 °F 29.62 in SSW 1.8 mph 3.5 mph 71 % 0.00 in
16:41 69.4 °F 58.8 °F 29.62 in SSW 5.0 mph 10.4 mph 69 % 0.00 in
16:46 69.2 °F 58.6 °F 29.61 in SSW 3.2 mph 6.9 mph 69 % 0.00 in
16:51 69.1 °F 58.1 °F 29.61 in SE 2.5 mph 5.8 mph 68 % 0.00 in
16:56 68.9 °F 57.1 °F 29.61 in SSE 4.5 mph 7.0 mph 66 % 0.00 in
17:01 68.6 °F 57.2 °F 29.61 in SSW 2.4 mph 6.0 mph 67 % 0.00 in
17:06 68.4 °F 56.6 °F 29.61 in SSW 1.8 mph 3.5 mph 66 % 0.00 in
17:12 68.3 °F 56.9 °F 29.61 in SSW 4.4 mph 6.9 mph 67 % 0.00 in
17:17 68.4 °F 57.4 °F 29.61 in SSW 3.3 mph 5.8 mph 68 % 0.00 in
17:22 68.5 °F 56.7 °F 29.60 in SSW 1.5 mph 4.6 mph 66 % 0.00 in
17:27 68.4 °F 56.2 °F 29.60 in South 3.6 mph 8.1 mph 65 % 0.00 in
17:32 68.3 °F 55.6 °F 29.60 in SSW 3.6 mph 7.0 mph 64 % 0.00 in
17:37 68.1 °F 55.0 °F 29.59 in South 3.4 mph 8.1 mph 63 % 0.00 in
17:42 68.0 °F 55.8 °F 29.59 in SSW 5.4 mph 6.9 mph 65 % 0.00 in
17:47 67.8 °F 55.2 °F 29.59 in SSW 3.0 mph 7.0 mph 64 % 0.00 in
17:52 67.6 °F 55.0 °F 29.59 in SW 1.7 mph 5.8 mph 64 % 0.00 in
17:57 67.4 °F 55.2 °F 29.59 in SSW 0.8 mph 5.8 mph 65 % 0.00 in
18:03 67.4 °F 55.6 °F 29.59 in SSW 4.0 mph 6.9 mph 66 % 0.00 in
18:08 67.2 °F 55.0 °F 29.58 in SSW 2.7 mph 6.9 mph 65 % 0.00 in
18:13 67.0 °F 55.3 °F 29.58 in SSW 3.4 mph 5.8 mph 66 % 0.00 in
18:18 66.8 °F 54.7 °F 29.58 in SSW 4.3 mph 10.0 mph 65 % 0.00 in
18:23 66.6 °F 54.5 °F 29.58 in SW 2.8 mph 5.8 mph 65 % 0.00 in
18:28 66.4 °F 54.3 °F 29.58 in West 1.4 mph 3.0 mph 65 % 0.00 in
18:33 66.2 °F 54.1 °F 29.58 in SSW 3.3 mph 4.6 mph 65 % 0.00 in
18:38 66.1 °F 54.0 °F 29.58 in SSW 1.3 mph 3.5 mph 65 % 0.00 in
18:43 66.0 °F 53.5 °F 29.58 in South 2.3 mph 5.8 mph 64 % 0.00 in
18:48 65.9 °F 53.4 °F 29.58 in SSW 2.3 mph 5.8 mph 64 % 0.00 in
18:54 65.8 °F 53.3 °F 29.58 in SSW 2.5 mph 5.0 mph 64 % 0.00 in
19:04 65.5 °F 52.6 °F 29.57 in South 2.4 mph 3.5 mph 63 % 0.00 in
19:09 65.4 °F 52.0 °F 29.58 in SSW 4.1 mph 6.0 mph 62 % 0.00 in
19:14 65.3 °F 51.9 °F 29.59 in SSW 4.4 mph 10.4 mph 62 % 0.00 in
19:19 65.3 °F 51.9 °F 29.60 in SW 5.2 mph 9.2 mph 62 % 0.00 in
19:24 65.0 °F 55.4 °F 29.61 in West 7.5 mph 12.7 mph 71 % 0.01 in
19:29 64.3 °F 56.9 °F 29.62 in SW 5.8 mph 16.1 mph 77 % 0.06 in
19:34 63.5 °F 56.9 °F 29.62 in SSW 7.0 mph 15.0 mph 79 % 0.07 in
19:39 62.8 °F 56.9 °F 29.62 in WSW 4.8 mph 6.9 mph 81 % 0.08 in
19:45 62.2 °F 56.6 °F 29.61 in SSW 3.1 mph 6.9 mph 82 % 0.09 in
19:50 61.8 °F 56.6 °F 29.61 in SW 3.2 mph 3.5 mph 83 % 0.09 in
19:55 61.4 °F 56.5 °F 29.60 in SW 2.7 mph 4.6 mph 84 % 0.10 in
20:00 61.0 °F 56.5 °F 29.59 in SW 0.3 mph 1.2 mph 85 % 0.11 in
20:05 60.8 °F 56.3 °F 29.59 in Calm     85 % 0.11 in
20:10 60.5 °F 56.3 °F 29.59 in Calm   1.2 mph 86 % 0.11 in
20:15 60.3 °F 56.1 °F 29.60 in SSW 0.7 mph 2.3 mph 86 % 0.11 in
20:20 60.0 °F 56.1 °F 29.59 in SW 1.3 mph 3.5 mph 87 % 0.11 in
20:25 59.8 °F 55.9 °F 29.59 in SW 0.3 mph 2.3 mph 87 % 0.10 in
20:30 59.6 °F 56.0 °F 29.60 in Calm     88 % 0.05 in
20:36 59.4 °F 55.8 °F 29.61 in SW 0.4 mph 1.2 mph 88 % 0.03 in
20:41 59.3 °F 55.7 °F 29.61 in SW 0.6 mph 2.3 mph 88 % 0.03 in
20:46 59.1 °F 55.9 °F 29.61 in SSW 3.5 mph 4.6 mph 89 % 0.02 in
20:51 58.9 °F 55.7 °F 29.61 in SSW 1.5 mph 3.0 mph 89 % 0.01 in
21:01 58.6 °F 55.7 °F 29.61 in SW 1.9 mph 3.5 mph 90 % 0.00 in
21:06 58.5 °F 55.6 °F 29.61 in South 2.3 mph 4.0 mph 90 % 0.00 in
21:11 58.4 °F 55.5 °F 29.60 in SSW 1.1 mph 3.5 mph 90 % 0.00 in
21:16 58.3 °F 55.4 °F 29.60 in WSW 1.1 mph 3.5 mph 90 % 0.00 in
21:21 58.3 °F 55.4 °F 29.60 in SW 2.2 mph 3.5 mph 90 % 0.01 in
21:27 58.2 °F 55.3 °F 29.61 in SW 2.9 mph 4.6 mph 90 % 0.01 in
21:32 58.1 °F 55.2 °F 29.60 in SSW 1.8 mph 3.5 mph 90 % 0.01 in
21:37 58.0 °F 55.1 °F 29.60 in SW 1.6 mph 4.6 mph 90 % 0.01 in
21:42 57.9 °F 55.0 °F 29.59 in SSW 1.3 mph 3.5 mph 90 % 0.01 in
21:47 57.8 °F 55.2 °F 29.60 in SSW 3.4 mph 5.8 mph 91 % 0.01 in
21:52 57.8 °F 54.9 °F 29.60 in SSW 3.9 mph 5.0 mph 90 % 0.01 in
21:57 57.7 °F 55.1 °F 29.60 in WSW 5.5 mph 10.4 mph 91 % 0.01 in
22:07 57.6 °F 55.0 °F 29.60 in SW 1.8 mph 4.6 mph 91 % 0.01 in
22:12 57.6 °F 55.0 °F 29.60 in SSW 1.9 mph 3.5 mph 91 % 0.01 in
22:18 57.5 °F 54.9 °F 29.60 in WSW 3.2 mph 4.0 mph 91 % 0.01 in
22:23 57.5 °F 54.9 °F 29.60 in WSW 3.3 mph 5.8 mph 91 % 0.00 in
22:28 57.5 °F 54.9 °F 29.60 in WSW 1.0 mph 4.6 mph 91 % 0.00 in
22:33 57.4 °F 54.8 °F 29.60 in SW 3.7 mph 6.9 mph 91 % 0.00 in
22:38 57.4 °F 54.8 °F 29.60 in West 1.1 mph 3.5 mph 91 % 0.00 in
22:43 57.3 °F 54.7 °F 29.60 in SW 3.1 mph 6.0 mph 91 % 0.00 in
22:48 57.3 °F 54.7 °F 29.60 in WSW 4.2 mph 6.0 mph 91 % 0.00 in
22:53 57.3 °F 54.7 °F 29.60 in SW 3.5 mph 6.9 mph 91 % 0.00 in
22:58 57.3 °F 54.4 °F 29.60 in SW 4.0 mph 6.9 mph 90 % 0.00 in
23:03 57.4 °F 54.5 °F 29.60 in WSW 1.6 mph 3.5 mph 90 % 0.00 in
23:09 57.4 °F 54.5 °F 29.60 in WSW 5.5 mph 5.5 mph 90 % 0.00 in
23:14 57.5 °F 54.3 °F 29.60 in SW 6.6 mph 13.8 mph 89 % 0.00 in
23:19 57.5 °F 54.0 °F 29.60 in SSW 6.4 mph 10.4 mph 88 % 0.00 in
23:24 57.6 °F 53.8 °F 29.60 in SW 4.3 mph 6.9 mph 87 % 0.00 in
23:29 57.7 °F 53.9 °F 29.60 in SSW 5.7 mph 9.2 mph 87 % 0.00 in
23:34 57.7 °F 53.5 °F 29.60 in WSW 5.9 mph 9.0 mph 86 % 0.00 in
23:39 57.7 °F 53.2 °F 29.59 in SW 7.5 mph 15.0 mph 85 % 0.00 in
23:44 57.7 °F 53.2 °F 29.59 in WSW 3.6 mph 11.5 mph 85 % 0.00 in
23:49 57.6 °F 52.8 °F 29.59 in WSW 6.7 mph 8.0 mph 84 % 0.00 in
23:54 57.5 °F 52.7 °F 29.60 in WNW 5.8 mph 6.9 mph 84 % 0.00 in
Crab Meadow Weather
Compliments of Weather Underground - 2.75 mb

Script developed by  Jim McMurry - jmcmurry@mwt.net Adapted for the template by  Wim van der Kuil - Leuven-Template.eu

Recycling: Americans throw away 25,000,000,000 Styrofoam coffee cups every year.